Amendola, Italy

3:33 PM CET on March 05, 2015 (GMT +0100)
Terra Apuliae | Change Station
CLOSE
Current Station
Personal Weather Station
Location: Manfredonia, FOGGIA
Elevation: 6 ft
Nearby Weather Stations
Active Advisory: Wind

Elev 6 ft 41.51 °N, 15.87 °E | Updated 2 seconds ago

Overcast
Overcast
47.7 °F
Feels Like 42 °F
N
13.8
Wind Variable Wind from West
Gusts 20.1 mph

Today
High -- | Low -- °F
--% Chance of Precip.
Yesterday
High -- | Low -- °F
Precip. -- in
6:26 AM 5:51 PM
Full, 100% visible
Pressure 29.65 in
Visibility 5.0 miles
Clouds Scattered Clouds 3000 ft
Windchill 42 °F
Dew Point 40 °F
Humidity 76%
Rainfall in
Snow Depth Not available.
UV 2 out of 12
Pollen Not available.
Air Quality Not available.
Flu Activity Not available.
METAR LIBD 051420Z 36004KT 8000 -RA SCT030 09/09 Q1004

More Conditions Fewer Conditions

Pressure 29.65 in
Visibility 5.0 miles
Clouds Scattered Clouds 3000 ft
Windchill 42 °F
Dew Point 40 °F
Humidity 76%
Rainfall in
Snow Depth Not available.
UV 2 out of 12
Pollen Not available.
Air Quality Not available.
Flu Activity Not available.
METAR LIBD 051420Z 36004KT 8000 -RA SCT030 09/09 Q1004

More Conditions Fewer Conditions

10-Day Weather Forecast

Almanac

Astronomy

Mar. 05, 2015 Rise Set
Actual Time
Civil Twilight
Nautical Twilight
Astronomical Twilight
Moon
Length of Visible Light
Length of Day
Tomorrow will be .
, % of the Moon is Illuminated

Today's Extremes

Country Highs Country Lows

Community

WunderPhotos

Upload Photos

1,802,782 photos uploaded!

WunderBlogs® & News

Nearby

Air Quality

  Air Quality AQ Index Pollutant
Not available.

Snow Depth

Station Depth Elevation

Earthquake Activity

City Distance Mag. Time & Date
Minimum magnitude displayed is 2.5.

Coastal Water Temperatures

Place Temperature

Nearby Weather Stations